createdAt,value
2023-01-15T00:01:18.952Z,2.28
2023-01-15T00:03:46.104Z,3.10
2023-01-15T00:06:12.953Z,2.25
2023-01-15T00:08:39.633Z,2.70
2023-01-15T00:11:06.536Z,2.72
2023-01-15T00:13:33.147Z,2.15
2023-01-15T00:16:06.506Z,2.63
2023-01-15T00:18:33.353Z,2.20
2023-01-15T00:21:01.012Z,2.88
2023-01-15T00:23:46.350Z,2.60
2023-01-15T00:29:02.773Z,2.65
2023-01-15T00:31:29.934Z,1.83
2023-01-15T00:33:56.722Z,2.25
2023-01-15T00:36:23.499Z,1.80
2023-01-15T00:38:50.355Z,2.20
2023-01-15T00:41:17.142Z,1.90
2023-01-15T00:43:44.266Z,2.30
2023-01-15T00:46:12.636Z,2.85
2023-01-15T00:48:39.740Z,2.88
2023-01-15T00:51:06.536Z,2.80
2023-01-15T00:53:33.249Z,2.78
2023-01-15T00:56:00.112Z,2.17
2023-01-15T00:58:28.473Z,3.22
2023-01-15T01:00:58.890Z,2.33
2023-01-15T01:03:25.742Z,2.13
2023-01-15T01:05:52.807Z,3.15
2023-01-15T01:08:20.113Z,2.55
2023-01-15T01:10:47.020Z,1.77
2023-01-15T01:13:14.132Z,2.03
2023-01-15T01:15:40.922Z,2.88
2023-01-15T01:18:07.585Z,2.75
2023-01-15T01:20:38.179Z,2.30
2023-01-15T01:23:05.260Z,2.35
2023-01-15T01:25:31.842Z,2.45
2023-01-15T01:27:58.699Z,2.85
2023-01-15T01:30:26.695Z,1.67
2023-01-15T01:32:53.315Z,2.45
2023-01-15T01:35:20.087Z,2.10
2023-01-15T01:37:52.648Z,3.00
2023-01-15T01:40:19.701Z,2.97
2023-01-15T01:42:47.035Z,2.60
2023-01-15T01:45:25.139Z,3.08
2023-01-15T01:47:54.729Z,3.33
2023-01-15T01:50:21.632Z,2.95
2023-01-15T01:52:57.691Z,2.10
2023-01-15T01:55:25.188Z,2.47
2023-01-15T01:57:54.948Z,2.63
2023-01-15T02:00:22.670Z,3.45
2023-01-15T02:02:49.886Z,2.30
2023-01-15T02:05:29.233Z,2.40
2023-01-15T02:07:56.363Z,2.10
2023-01-15T02:10:23.132Z,2.03
2023-01-15T02:12:56.025Z,2.25
2023-01-15T02:15:28.094Z,2.38
2023-01-15T02:17:54.935Z,2.28
2023-01-15T02:20:39.764Z,2.50
2023-01-15T02:23:25.104Z,1.88
2023-01-15T02:25:58.281Z,1.70
2023-01-15T02:28:36.178Z,2.75
2023-01-15T02:31:09.101Z,2.03
2023-01-15T02:33:38.660Z,1.95
2023-01-15T02:36:07.519Z,2.97
2023-01-15T02:38:40.474Z,2.58
2023-01-15T02:41:16.441Z,2.00
2023-01-15T02:43:46.075Z,2.33
2023-01-15T02:46:14.637Z,2.67
2023-01-15T02:48:42.835Z,2.13
2023-01-15T02:51:11.575Z,2.58
2023-01-15T02:53:40.505Z,2.38
2023-01-15T02:56:09.256Z,1.98
2023-01-15T02:58:44.377Z,2.10
2023-01-15T03:01:18.908Z,2.30
2023-01-15T03:04:04.279Z,2.47
2023-01-15T03:06:38.479Z,2.08
2023-01-15T03:09:06.596Z,2.27
2023-01-15T03:11:38.119Z,2.58
2023-01-15T03:14:14.480Z,2.45
2023-01-15T03:16:52.254Z,2.70
2023-01-15T03:19:48.230Z,1.65
2023-01-15T03:22:21.783Z,2.50
2023-01-15T03:25:04.127Z,2.55
2023-01-15T03:27:34.946Z,2.80
2023-01-15T03:30:09.017Z,1.45
2023-01-15T03:32:36.078Z,2.33
2023-01-15T03:35:06.061Z,1.98
2023-01-15T03:37:32.853Z,2.15
2023-01-15T03:39:59.849Z,2.47
2023-01-15T03:42:33.336Z,2.10
2023-01-15T03:45:05.751Z,2.08
2023-01-15T03:47:41.686Z,1.63
2023-01-15T03:50:18.154Z,2.17
2023-01-15T03:52:48.406Z,2.15
2023-01-15T03:55:22.777Z,2.13
2023-01-15T03:58:05.670Z,1.98
2023-01-15T04:00:40.831Z,1.50
2023-01-15T04:03:10.040Z,2.30
2023-01-15T04:05:37.764Z,2.00
2023-01-15T04:08:06.505Z,2.15
2023-01-15T04:10:33.494Z,2.60
2023-01-15T04:13:02.491Z,2.00
2023-01-15T04:15:29.427Z,2.50
2023-01-15T04:17:56.204Z,2.30
2023-01-15T04:20:24.993Z,2.22
2023-01-15T04:22:51.801Z,1.80
2023-01-15T04:25:18.658Z,1.75
2023-01-15T04:27:47.665Z,2.35
2023-01-15T04:30:17.582Z,2.08
2023-01-15T04:32:44.407Z,2.15
2023-01-15T04:35:11.135Z,3.05
2023-01-15T04:37:38.031Z,2.67
2023-01-15T04:40:05.073Z,1.95
2023-01-15T04:42:50.343Z,1.50
2023-01-15T04:47:43.468Z,1.55
2023-01-15T04:50:10.960Z,1.70
2023-01-15T04:52:38.420Z,1.65
2023-01-15T04:55:05.245Z,1.85
2023-01-15T04:57:31.995Z,1.40
2023-01-15T04:59:58.741Z,1.42
2023-01-15T05:02:25.658Z,1.63
2023-01-15T05:04:52.346Z,1.35
2023-01-15T05:07:20.143Z,1.92
2023-01-15T05:09:51.777Z,1.73
2023-01-15T05:12:18.703Z,1.85
2023-01-15T05:14:45.639Z,1.92
2023-01-15T05:17:12.596Z,1.88
2023-01-15T05:19:39.081Z,2.35
2023-01-15T05:22:06.350Z,2.33
2023-01-15T05:24:33.259Z,2.80
2023-01-15T05:27:00.389Z,2.30
2023-01-15T05:29:26.965Z,1.90
2023-01-15T05:31:53.818Z,1.90
2023-01-15T05:34:22.156Z,2.00
2023-01-15T05:36:49.283Z,1.40
2023-01-15T05:39:16.012Z,1.75
2023-01-15T05:41:52.948Z,2.00
2023-01-15T05:44:21.801Z,1.63
2023-01-15T05:46:48.823Z,2.45
2023-01-15T05:49:17.429Z,2.15
2023-01-15T05:51:44.106Z,2.25
2023-01-15T05:54:15.125Z,1.70
2023-01-15T05:56:41.986Z,2.28
2023-01-15T05:59:10.128Z,2.05
2023-01-15T06:01:36.756Z,1.58
2023-01-15T06:04:04.411Z,2.03
2023-01-15T06:06:31.265Z,1.67
2023-01-15T06:08:57.840Z,1.40
2023-01-15T06:11:24.759Z,3.83
2023-01-15T06:13:51.665Z,1.88
2023-01-15T06:16:19.180Z,1.80
2023-01-15T06:18:46.256Z,2.47
2023-01-15T06:21:14.148Z,1.63
2023-01-15T06:23:41.292Z,2.53
2023-01-15T06:26:10.815Z,2.15
2023-01-15T06:28:39.440Z,2.50
2023-01-15T06:31:06.994Z,1.92
2023-01-15T06:33:34.253Z,2.20
2023-01-15T06:36:04.977Z,2.60
2023-01-15T06:38:34.087Z,2.20
2023-01-15T06:41:01.906Z,3.15
2023-01-15T06:43:47.485Z,2.35
2023-01-15T06:46:33.110Z,2.75
2023-01-15T06:49:00.238Z,2.58
2023-01-15T06:51:27.136Z,2.55
2023-01-15T06:53:53.935Z,2.53
2023-01-15T06:56:20.776Z,1.98
2023-01-15T06:58:47.675Z,2.38
2023-01-15T07:01:15.553Z,2.55
2023-01-15T07:03:42.471Z,2.30
2023-01-15T07:06:09.802Z,2.85
2023-01-15T07:08:36.659Z,2.60
2023-01-15T07:11:07.261Z,2.20
2023-01-15T07:13:34.399Z,2.28
2023-01-15T07:16:01.665Z,2.40
2023-01-15T07:18:29.156Z,2.70
2023-01-15T07:20:58.376Z,2.85
2023-01-15T07:23:26.105Z,1.90
2023-01-15T07:25:53.435Z,2.95
2023-01-15T07:28:20.939Z,2.88
2023-01-15T07:30:47.696Z,1.85
2023-01-15T07:33:14.359Z,2.35
2023-01-15T07:35:40.853Z,3.10
2023-01-15T07:38:07.852Z,2.42
2023-01-15T07:40:36.938Z,3.15
2023-01-15T07:43:22.555Z,2.42
2023-01-15T07:46:07.799Z,2.47
2023-01-15T07:48:53.055Z,2.35
2023-01-15T07:53:46.297Z,2.83
2023-01-15T07:56:13.442Z,3.17
2023-01-15T07:58:40.204Z,2.35
2023-01-15T08:01:07.106Z,2.05
2023-01-15T08:03:33.755Z,2.38
2023-01-15T08:06:00.348Z,2.70
2023-01-15T08:08:26.947Z,2.55
2023-01-15T08:11:12.573Z,1.88
2023-01-15T08:14:16.206Z,2.25
2023-01-15T08:16:46.308Z,3.05
2023-01-15T08:19:12.865Z,2.47
2023-01-15T08:21:39.512Z,1.73
2023-01-15T08:24:06.402Z,2.17
2023-01-15T08:26:33.140Z,1.83
2023-01-15T08:28:59.785Z,3.42
2023-01-15T08:31:26.428Z,1.40
2023-01-15T08:33:53.114Z,1.88
2023-01-15T08:36:20.560Z,2.83
2023-01-15T08:38:49.437Z,1.88
2023-01-15T08:41:16.309Z,2.65
2023-01-15T08:43:43.003Z,1.90
2023-01-15T08:46:09.700Z,1.73
2023-01-15T08:48:39.215Z,2.13
2023-01-15T08:51:06.561Z,1.40
2023-01-15T08:53:34.714Z,1.70
2023-01-15T08:56:01.696Z,2.15
2023-01-15T08:58:32.213Z,1.88
2023-01-15T09:01:06.305Z,1.90
2023-01-15T09:03:33.773Z,1.92
2023-01-15T09:06:00.855Z,2.15
2023-01-15T09:08:28.459Z,2.42
2023-01-15T09:11:03.510Z,1.45
2023-01-15T09:13:30.695Z,2.10
2023-01-15T09:16:00.976Z,2.60
2023-01-15T09:18:27.534Z,1.85
2023-01-15T09:20:54.434Z,2.22
2023-01-15T09:23:21.028Z,2.10
2023-01-15T09:25:58.103Z,1.70
2023-01-15T09:28:25.066Z,2.25
2023-01-15T09:30:51.859Z,1.70
2023-01-15T09:33:19.223Z,1.88
2023-01-15T09:35:46.007Z,1.80
2023-01-15T09:38:13.347Z,2.17
2023-01-15T09:40:51.087Z,1.95
2023-01-15T09:43:30.459Z,2.22
2023-01-15T09:46:17.924Z,1.80
2023-01-15T09:48:47.611Z,1.67
2023-01-15T09:51:30.855Z,1.50
2023-01-15T09:54:18.273Z,2.30
2023-01-15T09:56:45.614Z,2.47
2023-01-15T09:59:19.378Z,2.47
2023-01-15T10:01:46.115Z,2.05
2023-01-15T10:04:31.236Z,1.83
2023-01-15T10:07:06.035Z,2.03
2023-01-15T10:09:37.563Z,2.30
2023-01-15T10:12:31.899Z,2.15
2023-01-15T10:15:02.485Z,1.90
2023-01-15T10:17:34.960Z,2.15
2023-01-15T10:20:01.774Z,2.05
2023-01-15T10:22:38.950Z,2.00
2023-01-15T10:25:09.676Z,2.00
2023-01-15T10:27:37.380Z,2.58
2023-01-15T10:30:07.006Z,2.35
2023-01-15T10:32:33.677Z,2.58
2023-01-15T10:35:09.033Z,2.08
2023-01-15T10:37:54.727Z,1.60
2023-01-15T10:40:24.208Z,2.88
2023-01-15T10:43:00.080Z,2.38
2023-01-15T10:45:28.787Z,2.40
2023-01-15T10:48:02.550Z,2.05
2023-01-15T10:50:29.384Z,2.38
2023-01-15T10:53:11.927Z,2.65
2023-01-15T10:55:41.965Z,1.90
2023-01-15T10:58:27.842Z,2.92
2023-01-15T11:00:57.737Z,2.13
2023-01-15T11:03:36.132Z,1.98
2023-01-15T11:06:03.590Z,1.77
2023-01-15T11:11:20.948Z,2.35
2023-01-15T11:14:13.613Z,2.17
2023-01-15T11:17:22.844Z,1.55
2023-01-15T11:20:07.421Z,1.95
2023-01-15T11:22:49.623Z,1.70
2023-01-15T11:25:25.452Z,1.95
2023-01-15T11:27:54.603Z,2.78
2023-01-15T11:30:32.002Z,2.63
2023-01-15T11:33:00.617Z,1.80
2023-01-15T11:35:27.300Z,2.15
2023-01-15T11:38:07.156Z,1.70
2023-01-15T11:40:34.086Z,2.00
2023-01-15T11:43:21.981Z,1.85
2023-01-15T11:46:11.280Z,1.67
2023-01-15T11:49:03.296Z,2.88
2023-01-15T11:51:31.329Z,1.83
2023-01-15T11:54:00.672Z,1.83
2023-01-15T11:56:28.784Z,2.70
2023-01-15T11:58:57.621Z,2.00
2023-01-15T12:01:35.109Z,2.25
2023-01-15T12:04:04.361Z,1.85
2023-01-15T12:06:31.406Z,2.58
2023-01-15T12:08:58.083Z,2.10
2023-01-15T12:11:27.741Z,1.98
2023-01-15T12:13:57.400Z,2.72
2023-01-15T12:16:24.205Z,2.08
2023-01-15T12:18:58.826Z,2.50
2023-01-15T12:21:34.666Z,1.77
2023-01-15T12:24:01.566Z,1.70
2023-01-15T12:26:32.921Z,2.58
2023-01-15T12:29:02.644Z,2.72
2023-01-15T12:31:40.227Z,2.35
2023-01-15T12:34:21.940Z,2.53
2023-01-15T12:36:56.581Z,3.03
2023-01-15T12:39:27.535Z,1.92
2023-01-15T12:42:14.634Z,1.83
2023-01-15T12:45:04.281Z,1.95
2023-01-15T12:47:37.147Z,1.92
2023-01-15T12:50:07.274Z,2.67
2023-01-15T12:52:36.349Z,3.38
2023-01-15T12:55:02.881Z,2.60
2023-01-15T12:57:36.670Z,2.17
2023-01-15T13:00:07.485Z,3.13
2023-01-15T13:02:57.272Z,2.05
2023-01-15T13:05:28.614Z,2.45
2023-01-15T13:08:10.816Z,2.10
2023-01-15T13:10:38.671Z,3.08
2023-01-15T13:13:14.093Z,2.22
2023-01-15T13:15:47.065Z,2.72
2023-01-15T13:18:22.150Z,2.67
2023-01-15T13:20:50.781Z,3.17
2023-01-15T13:23:29.377Z,2.55
2023-01-15T13:26:05.720Z,2.17
2023-01-15T13:28:34.976Z,2.25
2023-01-15T13:31:01.456Z,2.00
2023-01-15T13:33:42.998Z,2.42
2023-01-15T13:36:24.808Z,2.92
2023-01-15T13:38:54.690Z,2.55
2023-01-15T13:41:42.956Z,2.03
2023-01-15T13:44:30.827Z,2.03
2023-01-15T13:47:05.811Z,2.85
2023-01-15T13:52:04.295Z,2.63
2023-01-15T13:54:32.271Z,2.70
2023-01-15T13:57:09.258Z,3.28
2023-01-15T13:59:43.854Z,2.60
2023-01-15T14:02:21.864Z,1.90
2023-01-15T14:04:48.626Z,2.38
2023-01-15T14:07:19.444Z,1.80
2023-01-15T14:09:46.187Z,1.88
2023-01-15T14:12:12.760Z,1.52
2023-01-15T14:14:39.562Z,1.77
2023-01-15T14:17:24.739Z,1.60
2023-01-15T14:22:31.473Z,1.77
2023-01-15T14:25:09.680Z,2.30
2023-01-15T14:27:36.443Z,1.85
2023-01-15T14:30:02.944Z,2.20
2023-01-15T14:32:35.594Z,2.13
2023-01-15T14:35:02.857Z,1.58
2023-01-15T14:37:47.912Z,1.80
2023-01-15T14:40:31.596Z,1.33
2023-01-15T14:43:04.921Z,1.80
2023-01-15T14:45:33.780Z,1.83
2023-01-15T14:48:01.678Z,2.05
2023-01-15T14:50:38.864Z,1.80
2023-01-15T14:53:05.630Z,2.05
2023-01-15T14:55:32.513Z,1.67
2023-01-15T14:58:01.482Z,1.77
2023-01-15T15:00:31.358Z,1.77
2023-01-15T15:02:59.688Z,1.90
2023-01-15T15:05:26.622Z,1.60
2023-01-15T15:07:53.805Z,1.60
2023-01-15T15:10:22.779Z,2.63
2023-01-15T15:12:55.989Z,2.22
2023-01-15T15:15:25.395Z,1.85
2023-01-15T15:17:58.377Z,2.53
2023-01-15T15:20:54.263Z,2.00
2023-01-15T15:25:58.278Z,2.55
2023-01-15T15:28:25.115Z,2.72
2023-01-15T15:30:52.139Z,1.70
2023-01-15T15:33:20.902Z,2.33
2023-01-15T15:35:49.313Z,2.20
2023-01-15T15:38:17.759Z,1.85
2023-01-15T15:40:51.915Z,1.88
2023-01-15T15:43:51.136Z,1.83
2023-01-15T15:46:49.521Z,1.83
2023-01-15T15:49:16.773Z,1.60
2023-01-15T15:51:50.170Z,1.85
2023-01-15T15:54:21.483Z,2.08
2023-01-15T15:56:50.862Z,1.90
2023-01-15T15:59:20.510Z,2.25
2023-01-15T16:01:50.164Z,1.88
2023-01-15T16:04:18.444Z,1.83
2023-01-15T16:06:45.780Z,2.00
2023-01-15T16:09:19.903Z,1.75
2023-01-15T16:11:47.273Z,1.50
2023-01-15T16:14:17.350Z,2.38
2023-01-15T16:16:44.500Z,2.42
2023-01-15T16:19:14.338Z,2.10
2023-01-15T16:21:41.635Z,1.70
2023-01-15T16:24:10.052Z,2.03
2023-01-15T16:26:44.395Z,1.33
2023-01-15T16:29:21.718Z,1.73
2023-01-15T16:31:48.976Z,1.77
2023-01-15T16:34:19.930Z,2.65
2023-01-15T16:36:47.143Z,2.22
2023-01-15T16:39:23.229Z,1.08
2023-01-15T16:41:50.574Z,1.50
2023-01-15T16:44:25.369Z,1.67
2023-01-15T16:46:57.698Z,1.70
2023-01-15T16:49:24.459Z,1.40
2023-01-15T16:51:52.115Z,1.80
2023-01-15T16:54:31.230Z,1.55
2023-01-15T16:57:04.970Z,1.95
2023-01-15T16:59:31.898Z,1.42
2023-01-15T17:02:05.631Z,1.52
2023-01-15T17:04:37.037Z,1.30
2023-01-15T17:07:05.911Z,1.60
2023-01-15T17:09:34.712Z,1.35
2023-01-15T17:12:04.433Z,1.80
2023-01-15T17:14:33.533Z,1.33
2023-01-15T17:17:32.418Z,1.80
2023-01-15T17:19:59.114Z,1.55
2023-01-15T17:22:29.575Z,1.30
2023-01-15T17:24:57.331Z,1.40
2023-01-15T17:27:24.490Z,0.90
2023-01-15T17:29:51.259Z,1.23
2023-01-15T17:32:20.276Z,1.40
2023-01-15T17:34:47.251Z,1.10
2023-01-15T17:37:13.873Z,1.27
2023-01-15T17:39:40.692Z,0.98
2023-01-15T17:42:18.366Z,1.33
2023-01-15T17:44:45.365Z,1.65
2023-01-15T17:47:14.571Z,1.23
2023-01-15T17:49:41.233Z,1.27
2023-01-15T17:52:14.414Z,1.00
2023-01-15T17:55:08.716Z,1.45
2023-01-15T17:58:00.411Z,0.88
2023-01-15T18:00:47.788Z,0.90
2023-01-15T18:03:42.269Z,1.10
2023-01-15T18:06:13.187Z,1.35
2023-01-15T18:08:41.178Z,1.00
2023-01-15T18:11:07.887Z,1.33
2023-01-15T18:13:34.636Z,0.82
2023-01-15T18:16:01.849Z,0.98
2023-01-15T18:18:28.692Z,0.80
2023-01-15T18:20:55.348Z,0.70
2023-01-15T18:23:22.117Z,0.88
2023-01-15T18:25:48.971Z,0.80
2023-01-15T18:28:16.150Z,0.80
2023-01-15T18:30:42.897Z,0.70
2023-01-15T18:33:09.704Z,0.80
2023-01-15T18:35:36.435Z,0.75
2023-01-15T18:38:03.176Z,0.90
2023-01-15T18:40:34.608Z,0.88
2023-01-15T18:43:21.917Z,0.80
2023-01-15T18:46:07.718Z,0.80
2023-01-15T18:48:34.601Z,0.75
2023-01-15T18:51:10.525Z,0.73
2023-01-15T18:53:37.465Z,0.80
2023-01-15T18:56:04.888Z,1.52
2023-01-15T18:58:31.850Z,1.20
2023-01-15T19:00:58.621Z,1.27
2023-01-15T19:03:28.240Z,0.70
2023-01-15T19:05:54.815Z,1.00
2023-01-15T19:08:21.674Z,1.05
2023-01-15T19:10:48.246Z,1.38
2023-01-15T19:13:20.118Z,0.82
2023-01-15T19:16:08.626Z,0.52
2023-01-15T19:18:52.689Z,0.75
2023-01-15T19:21:20.829Z,1.90
2023-01-15T19:23:47.746Z,0.60
2023-01-15T19:26:14.771Z,0.70
2023-01-15T19:28:43.384Z,0.98
2023-01-15T19:31:29.062Z,0.82
2023-01-15T19:34:31.120Z,1.40
2023-01-15T19:36:46.440Z,2.08
2023-01-15T19:39:13.147Z,0.80
2023-01-15T19:41:58.513Z,0.90
2023-01-15T19:44:44.255Z,0.50
2023-01-15T19:47:40.420Z,0.80
2023-01-15T19:50:20.388Z,0.70
2023-01-15T19:52:53.778Z,0.70
2023-01-15T19:55:21.649Z,0.75
2023-01-15T19:57:49.254Z,1.45
2023-01-15T20:00:20.513Z,0.52
2023-01-15T20:02:47.123Z,0.50
2023-01-15T20:05:14.849Z,0.90
2023-01-15T20:07:42.135Z,0.80
2023-01-15T20:10:36.748Z,1.20
2023-01-15T20:13:40.188Z,0.60
2023-01-15T20:22:55.243Z,1.77
2023-01-15T21:00:25.024Z,0.50
2023-01-15T21:03:12.356Z,0.40
2023-01-15T21:06:39.508Z,0.50
2023-01-15T21:38:20.553Z,0.90
2023-01-15T21:44:35.005Z,0.90
2023-01-15T21:49:58.004Z,1.08
2023-01-15T21:55:48.352Z,0.77
2023-01-15T21:58:28.111Z,0.70
2023-01-15T22:21:37.056Z,0.80
2023-01-15T22:24:04.602Z,1.17
2023-01-15T22:26:31.548Z,1.00
2023-01-15T22:28:59.278Z,1.10
2023-01-15T22:31:27.269Z,1.27
2023-01-15T22:33:54.364Z,1.00
2023-01-15T22:36:23.436Z,0.98
2023-01-15T22:38:54.627Z,1.92
2023-01-15T22:41:40.624Z,1.42
2023-01-15T22:44:07.778Z,1.30
2023-01-15T22:46:35.209Z,1.17
2023-01-15T22:49:04.956Z,1.20
2023-01-15T22:51:31.797Z,1.60
2023-01-15T22:53:58.794Z,1.67
2023-01-15T22:56:25.504Z,1.80
2023-01-15T22:58:55.570Z,1.48
2023-01-15T23:01:23.326Z,1.80
2023-01-15T23:03:50.239Z,2.42
2023-01-15T23:06:20.187Z,1.30
2023-01-15T23:08:46.998Z,1.33
2023-01-15T23:11:17.971Z,1.73
2023-01-15T23:13:44.702Z,1.67
2023-01-15T23:16:12.608Z,1.60
2023-01-15T23:18:39.528Z,1.60
2023-01-15T23:21:10.210Z,1.67
2023-01-15T23:23:37.089Z,1.90
2023-01-15T23:26:05.267Z,1.80
2023-01-15T23:28:32.376Z,2.00
2023-01-15T23:30:59.210Z,1.88
2023-01-15T23:33:26.098Z,1.83
2023-01-15T23:35:53.102Z,2.15
2023-01-15T23:38:20.101Z,1.90
2023-01-15T23:40:50.105Z,1.80
2023-01-15T23:43:35.981Z,2.40
2023-01-15T23:46:22.487Z,2.30
2023-01-15T23:48:49.395Z,2.00
2023-01-15T23:51:15.929Z,2.35
2023-01-15T23:53:42.610Z,2.50
2023-01-15T23:56:09.322Z,1.90
2023-01-15T23:58:36.659Z,2.58
